createdAt,value
2022-11-17T00:08:43.113Z,2.40
2022-11-17T00:23:44.577Z,1.70
2022-11-17T00:38:46.028Z,2.10
2022-11-17T00:53:47.477Z,1.97
2022-11-17T01:08:48.940Z,1.90
2022-11-17T01:23:50.391Z,1.60
2022-11-17T01:38:51.848Z,1.70
2022-11-17T01:53:53.288Z,1.30
2022-11-17T02:08:54.759Z,1.60
2022-11-17T02:23:56.221Z,1.40
2022-11-17T02:38:57.686Z,1.90
2022-11-17T02:53:59.141Z,1.20
2022-11-17T03:09:00.601Z,1.47
2022-11-17T03:24:02.059Z,1.20
2022-11-17T03:39:03.517Z,1.70
2022-11-17T03:54:04.972Z,1.07
2022-11-17T04:09:06.433Z,1.70
2022-11-17T04:24:07.894Z,0.90
2022-11-17T04:39:09.364Z,1.23
2022-11-17T04:54:10.823Z,0.93
2022-11-17T05:09:12.286Z,1.00
2022-11-17T05:24:13.738Z,0.90
2022-11-17T05:39:15.187Z,1.53
2022-11-17T05:54:16.643Z,1.17
2022-11-17T06:09:18.104Z,1.40
2022-11-17T06:24:19.565Z,1.27
2022-11-17T06:39:21.027Z,1.53
2022-11-17T06:54:22.485Z,1.13
2022-11-17T07:09:23.946Z,1.60
2022-11-17T07:24:25.403Z,1.10
2022-11-17T07:39:26.856Z,1.47
2022-11-17T07:54:28.333Z,1.30
2022-11-17T08:24:46.637Z,0.90
2022-11-17T08:39:48.105Z,1.10
2022-11-17T08:54:49.552Z,0.87
2022-11-17T09:09:51.027Z,0.90
2022-11-17T09:24:52.482Z,0.90
2022-11-17T09:39:53.955Z,1.17
2022-11-17T09:54:55.491Z,1.90
2022-11-17T10:09:56.951Z,1.20
2022-11-17T10:24:58.413Z,1.43
2022-11-17T10:55:16.667Z,1.00
2022-11-17T11:10:20.536Z,0.90
2022-11-17T11:25:21.992Z,0.70
2022-11-17T11:40:23.452Z,1.40
2022-11-17T11:55:24.914Z,0.80
2022-11-17T12:10:26.374Z,0.93
2022-11-17T12:25:27.834Z,0.70
2022-11-17T12:40:29.298Z,0.60
2022-11-17T12:55:30.766Z,0.70
2022-11-17T13:10:32.236Z,1.23
2022-11-17T13:25:33.702Z,0.90
2022-11-17T13:40:35.535Z,0.80
2022-11-17T13:55:36.988Z,0.80
2022-11-17T14:10:38.444Z,0.97
2022-11-17T14:25:39.901Z,0.83
2022-11-17T14:40:41.346Z,0.77
2022-11-17T14:55:42.809Z,1.03
2022-11-17T15:10:44.274Z,0.70
2022-11-17T15:25:45.727Z,0.70
2022-11-17T15:40:47.190Z,0.50
2022-11-17T15:55:48.653Z,0.73
2022-11-17T16:10:50.221Z,1.63
2022-11-17T16:25:51.688Z,0.73
2022-11-17T16:40:53.152Z,1.67
2022-11-17T16:55:54.605Z,4.20
2022-11-17T17:10:56.061Z,3.53
2022-11-17T17:25:57.518Z,3.00
2022-11-17T17:40:58.977Z,3.23
2022-11-17T17:56:00.479Z,2.63
2022-11-17T18:11:03.087Z,2.90
2022-11-17T18:26:04.531Z,2.70
2022-11-17T18:41:06.021Z,2.53
2022-11-17T18:56:07.482Z,2.70
2022-11-17T19:11:08.939Z,2.40
2022-11-17T19:26:10.382Z,2.07
2022-11-17T19:41:11.840Z,1.70
2022-11-17T19:56:13.309Z,2.00
2022-11-17T20:11:14.754Z,1.97
2022-11-17T20:26:16.216Z,2.73
2022-11-17T20:41:17.675Z,1.80
2022-11-17T20:56:19.127Z,2.03
2022-11-17T21:11:20.585Z,2.00
2022-11-17T21:26:22.061Z,2.07
2022-11-17T21:41:23.521Z,1.80
2022-11-17T21:56:24.977Z,1.70
2022-11-17T22:11:26.436Z,1.50
2022-11-17T22:26:27.901Z,1.40
2022-11-17T22:41:29.352Z,2.17
2022-11-17T22:56:30.808Z,1.40
2022-11-17T23:11:39.289Z,2.07
2022-11-17T23:26:40.778Z,1.80
2022-11-17T23:41:42.237Z,1.50
2022-11-17T23:56:43.701Z,1.40
